createdAt,value
2016-12-30T00:00:34.325Z,0
2016-12-30T00:01:34.377Z,0
2016-12-30T00:02:34.430Z,0
2016-12-30T00:03:34.493Z,0
2016-12-30T00:04:34.536Z,0
2016-12-30T00:05:34.604Z,0
2016-12-30T00:06:34.664Z,0
2016-12-30T00:07:34.724Z,0
2016-12-30T00:08:34.768Z,0
2016-12-30T00:09:34.839Z,0
2016-12-30T00:10:49.811Z,0
2016-12-30T00:11:34.946Z,0
2016-12-30T00:12:34.997Z,0
2016-12-30T00:13:35.070Z,0
2016-12-30T00:14:35.111Z,0
2016-12-30T00:15:35.173Z,0
2016-12-30T00:16:35.229Z,0
2016-12-30T00:17:35.295Z,0
2016-12-30T00:19:35.395Z,0
2016-12-30T00:20:35.451Z,0
2016-12-30T00:21:50.444Z,0
2016-12-30T00:23:20.358Z,0
2016-12-30T00:23:35.622Z,0
2016-12-30T00:24:35.696Z,0
2016-12-30T00:25:35.744Z,0
2016-12-30T00:26:36.178Z,0
2016-12-30T00:27:50.780Z,0
2016-12-30T00:28:35.921Z,0
2016-12-30T00:29:35.969Z,0
2016-12-30T00:30:36.030Z,0
2016-12-30T00:31:36.081Z,0
2016-12-30T00:32:36.138Z,0
2016-12-30T00:33:36.182Z,0
2016-12-30T00:34:36.247Z,0
2016-12-30T00:35:36.304Z,0
2016-12-30T00:36:36.367Z,0
2016-12-30T00:37:36.417Z,0
2016-12-30T00:38:36.468Z,0
2016-12-30T00:39:36.536Z,0
2016-12-30T00:40:36.596Z,0
2016-12-30T00:41:36.635Z,0
2016-12-30T00:42:36.696Z,0
2016-12-30T00:43:36.759Z,0
2016-12-30T00:44:36.820Z,0
2016-12-30T00:45:36.870Z,0
2016-12-30T00:46:36.912Z,0
2016-12-30T00:47:36.973Z,0
2016-12-30T00:48:37.039Z,0
2016-12-30T00:49:37.099Z,0
2016-12-30T00:50:37.142Z,0
2016-12-30T00:51:37.207Z,0
2016-12-30T00:52:37.256Z,0
2016-12-30T00:53:37.321Z,0
2016-12-30T00:54:37.365Z,0
2016-12-30T00:55:37.435Z,0
2016-12-30T00:56:37.491Z,0
2016-12-30T00:57:37.529Z,0
2016-12-30T00:58:37.595Z,0
2016-12-30T00:59:37.647Z,0
2016-12-30T01:00:37.711Z,0
2016-12-30T01:01:52.691Z,0
2016-12-30T01:02:37.807Z,0
2016-12-30T01:03:37.901Z,0
2016-12-30T01:04:38.314Z,0
2016-12-30T01:05:37.983Z,0
2016-12-30T01:06:38.042Z,0
2016-12-30T01:07:38.099Z,0
2016-12-30T01:08:38.159Z,0
2016-12-30T01:09:38.221Z,0
2016-12-30T01:10:38.266Z,0
2016-12-30T01:11:38.701Z,0
2016-12-30T01:12:38.383Z,0
2016-12-30T01:13:38.435Z,0
2016-12-30T01:14:38.483Z,0
2016-12-30T01:15:38.540Z,0
2016-12-30T01:16:38.604Z,0
2016-12-30T01:17:38.660Z,0
2016-12-30T01:18:38.721Z,0
2016-12-30T01:19:38.782Z,0
2016-12-30T01:20:38.837Z,0
2016-12-30T01:21:38.891Z,0
2016-12-30T01:22:38.944Z,0
2016-12-30T01:23:38.992Z,0
2016-12-30T01:24:39.051Z,0
2016-12-30T01:25:39.110Z,0
2016-12-30T01:26:39.177Z,0
2016-12-30T01:27:39.215Z,0
2016-12-30T01:28:39.285Z,0
2016-12-30T01:29:39.363Z,0
2016-12-30T01:30:39.387Z,0
2016-12-30T01:31:39.448Z,0
2016-12-30T01:32:39.517Z,0
2016-12-30T01:33:39.568Z,0
2016-12-30T01:34:39.621Z,0
2016-12-30T01:35:39.678Z,0
2016-12-30T01:36:39.732Z,0
2016-12-30T01:38:24.570Z,0
2016-12-30T01:39:24.626Z,0
2016-12-30T01:39:54.827Z,0
2016-12-30T01:40:39.958Z,0
2016-12-30T01:41:40.001Z,0
2016-12-30T01:42:40.068Z,0
2016-12-30T01:43:40.121Z,0
2016-12-30T01:44:40.380Z,0
2016-12-30T01:45:40.229Z,0
2016-12-30T01:46:40.301Z,0
2016-12-30T01:47:40.361Z,0
2016-12-30T01:48:40.409Z,0
2016-12-30T01:49:40.454Z,0
2016-12-30T01:50:40.512Z,0
2016-12-30T01:51:40.577Z,0
2016-12-30T01:52:40.627Z,0
2016-12-30T01:53:40.690Z,0
2016-12-30T01:54:40.745Z,0
2016-12-30T01:55:40.799Z,0
2016-12-30T01:56:40.855Z,0
2016-12-30T01:57:40.895Z,0
2016-12-30T01:58:40.961Z,0
2016-12-30T01:59:41.012Z,0
2016-12-30T02:00:41.077Z,0
2016-12-30T02:01:41.132Z,0
2016-12-30T02:02:41.193Z,0
2016-12-30T02:03:41.228Z,0
2016-12-30T02:04:41.309Z,0
2016-12-30T02:05:41.351Z,0
2016-12-30T02:06:41.413Z,0
2016-12-30T02:07:41.459Z,0
2016-12-30T02:08:41.507Z,0
2016-12-30T02:09:41.577Z,0
2016-12-30T02:10:41.625Z,0
2016-12-30T02:11:41.685Z,0
2016-12-30T02:12:41.742Z,0
2016-12-30T02:13:41.794Z,0
2016-12-30T02:14:41.857Z,0
2016-12-30T02:15:42.001Z,0
2016-12-30T02:16:41.962Z,0
2016-12-30T02:17:42.020Z,0
2016-12-30T02:18:42.072Z,0
2016-12-30T02:19:42.133Z,0
2016-12-30T02:20:42.205Z,0
2016-12-30T02:21:42.236Z,0
2016-12-30T02:22:42.291Z,0
2016-12-30T02:23:42.363Z,0
2016-12-30T02:24:42.428Z,0
2016-12-30T02:25:42.471Z,0
2016-12-30T02:26:42.555Z,0
2016-12-30T02:27:42.582Z,0
2016-12-30T02:28:42.639Z,0
2016-12-30T02:29:42.688Z,0
2016-12-30T02:30:42.760Z,0
2016-12-30T02:31:42.819Z,0
2016-12-30T02:32:43.066Z,0
2016-12-30T02:33:43.125Z,0
2016-12-30T02:34:42.988Z,0
2016-12-30T02:35:43.043Z,0
2016-12-30T02:36:43.093Z,0
2016-12-30T02:37:43.156Z,0
2016-12-30T02:38:43.206Z,0
2016-12-30T02:39:43.254Z,0
2016-12-30T02:40:43.320Z,0
2016-12-30T02:41:43.380Z,0
2016-12-30T02:42:43.416Z,0
2016-12-30T02:43:43.480Z,0
2016-12-30T02:44:43.537Z,0
2016-12-30T02:45:43.596Z,0
2016-12-30T02:46:44.030Z,0
2016-12-30T02:47:43.699Z,0
2016-12-30T02:48:43.757Z,0
2016-12-30T02:49:43.818Z,0
2016-12-30T02:50:43.875Z,0
2016-12-30T02:51:43.934Z,0
2016-12-30T02:52:43.972Z,0
2016-12-30T02:53:44.043Z,0
2016-12-30T02:54:44.088Z,0
2016-12-30T02:55:44.153Z,0
2016-12-30T02:56:44.215Z,0
2016-12-30T02:57:44.258Z,0
2016-12-30T02:58:44.315Z,0
2016-12-30T02:59:44.375Z,0
2016-12-30T03:00:44.636Z,0
2016-12-30T03:01:45.078Z,0
2016-12-30T03:02:44.545Z,0
2016-12-30T03:03:44.597Z,0
2016-12-30T03:04:44.651Z,0
2016-12-30T03:05:44.703Z,0
2016-12-30T03:06:44.963Z,0
2016-12-30T03:07:44.819Z,0
2016-12-30T03:08:44.892Z,0
2016-12-30T03:09:44.942Z,0
2016-12-30T03:10:44.994Z,0
2016-12-30T03:11:45.038Z,0
2016-12-30T03:12:45.089Z,0
2016-12-30T03:13:45.163Z,0
2016-12-30T03:14:45.207Z,0
2016-12-30T03:15:45.280Z,0
2016-12-30T03:16:45.333Z,0
2016-12-30T03:17:45.365Z,0
2016-12-30T03:18:45.432Z,0
2016-12-30T03:19:45.485Z,0
2016-12-30T03:20:45.546Z,0
2016-12-30T03:21:45.608Z,0
2016-12-30T03:22:45.657Z,0
2016-12-30T03:23:45.715Z,0
2016-12-30T03:24:45.759Z,0
2016-12-30T03:25:45.832Z,0
2016-12-30T03:26:45.872Z,0
2016-12-30T03:27:45.939Z,0
2016-12-30T03:28:45.986Z,0
2016-12-30T03:29:46.231Z,0
2016-12-30T03:30:46.321Z,0
2016-12-30T03:31:46.166Z,0
2016-12-30T03:32:46.217Z,0
2016-12-30T03:33:46.261Z,0
2016-12-30T03:34:46.322Z,0
2016-12-30T03:35:46.397Z,0
2016-12-30T03:36:46.436Z,0
2016-12-30T03:37:46.500Z,0
2016-12-30T03:38:46.553Z,0
2016-12-30T03:39:46.625Z,0
2016-12-30T03:40:46.669Z,0
2016-12-30T03:41:46.720Z,0
2016-12-30T03:42:46.776Z,0
2016-12-30T03:43:46.873Z,0
2016-12-30T03:44:46.892Z,0
2016-12-30T03:45:46.956Z,0
2016-12-30T03:46:47.010Z,0
2016-12-30T03:47:47.057Z,0
2016-12-30T03:48:47.105Z,0
2016-12-30T03:49:47.176Z,0
2016-12-30T03:50:47.230Z,0
2016-12-30T03:51:47.274Z,0
2016-12-30T03:52:47.338Z,0
2016-12-30T03:53:47.399Z,0
2016-12-30T03:54:47.454Z,0
2016-12-30T03:55:47.554Z,0
2016-12-30T03:56:47.557Z,0
2016-12-30T03:57:47.622Z,0
2016-12-30T03:58:47.882Z,0
2016-12-30T03:59:47.763Z,0
2016-12-30T04:00:47.991Z,0
2016-12-30T04:01:47.842Z,0
2016-12-30T04:02:47.897Z,0
2016-12-30T04:03:47.967Z,0
2016-12-30T04:04:48.019Z,0
2016-12-30T04:05:48.063Z,0
2016-12-30T04:06:48.130Z,0
2016-12-30T04:07:48.197Z,0
2016-12-30T04:08:48.243Z,0
2016-12-30T04:09:48.302Z,0
2016-12-30T04:10:48.369Z,0
2016-12-30T04:11:48.419Z,0
2016-12-30T04:12:48.465Z,0
2016-12-30T04:13:48.533Z,0
2016-12-30T04:14:48.587Z,0
2016-12-30T04:15:48.648Z,0
2016-12-30T04:16:48.704Z,0
2016-12-30T04:17:48.764Z,0
2016-12-30T04:18:48.810Z,0
2016-12-30T04:19:48.875Z,0
2016-12-30T04:20:48.921Z,0
2016-12-30T04:21:48.987Z,0
2016-12-30T04:22:49.041Z,0
2016-12-30T04:23:49.099Z,0
2016-12-30T04:24:49.152Z,0
2016-12-30T04:25:49.242Z,0
2016-12-30T04:26:49.477Z,0
2016-12-30T04:27:49.530Z,0
2016-12-30T04:28:49.386Z,0
2016-12-30T04:29:49.451Z,0
2016-12-30T04:30:49.484Z,0
2016-12-30T04:31:49.560Z,0
2016-12-30T04:32:49.611Z,0
2016-12-30T04:33:49.672Z,0
2016-12-30T04:34:49.726Z,0
2016-12-30T04:35:49.777Z,0
2016-12-30T04:36:49.835Z,0
2016-12-30T04:37:49.895Z,0
2016-12-30T04:38:49.940Z,0
2016-12-30T04:39:50.013Z,0
2016-12-30T04:40:50.088Z,0
2016-12-30T04:41:50.120Z,0
2016-12-30T04:42:50.166Z,0
2016-12-30T04:43:50.217Z,0
2016-12-30T04:44:50.287Z,0
2016-12-30T04:45:50.350Z,0
2016-12-30T04:46:50.392Z,0
2016-12-30T04:47:50.459Z,0
2016-12-30T04:48:50.509Z,0
2016-12-30T04:49:50.555Z,0
2016-12-30T04:50:50.636Z,0
2016-12-30T04:51:50.680Z,0
2016-12-30T04:52:50.735Z,0
2016-12-30T04:53:50.786Z,0
2016-12-30T04:54:51.040Z,0
2016-12-30T04:55:50.895Z,0
2016-12-30T04:56:50.972Z,0
2016-12-30T04:57:51.015Z,0
2016-12-30T04:58:51.085Z,0
2016-12-30T04:59:51.130Z,0
2016-12-30T05:00:51.228Z,0
2016-12-30T05:01:51.230Z,0
2016-12-30T05:02:51.296Z,0
2016-12-30T05:03:51.361Z,0
2016-12-30T05:04:51.397Z,0
2016-12-30T05:05:51.463Z,0
2016-12-30T05:06:51.510Z,0
2016-12-30T05:07:51.580Z,0
2016-12-30T05:08:51.618Z,0
2016-12-30T05:09:51.680Z,0
2016-12-30T05:10:51.753Z,0
2016-12-30T05:11:51.786Z,0
2016-12-30T05:12:51.851Z,0
2016-12-30T05:13:51.904Z,0
2016-12-30T05:14:51.967Z,0
2016-12-30T05:15:52.017Z,0
2016-12-30T05:16:52.083Z,0
2016-12-30T05:17:52.114Z,0
2016-12-30T05:18:52.176Z,0
2016-12-30T05:19:52.239Z,0
2016-12-30T05:20:52.291Z,0
2016-12-30T05:21:52.350Z,0
2016-12-30T05:22:52.403Z,0
2016-12-30T05:23:52.452Z,0
2016-12-30T05:24:52.516Z,0
2016-12-30T05:25:52.573Z,0
2016-12-30T05:26:52.646Z,0
2016-12-30T05:27:52.687Z,0
2016-12-30T05:28:52.743Z,0
2016-12-30T05:29:52.802Z,0
2016-12-30T05:30:52.849Z,0
2016-12-30T05:31:52.910Z,0
2016-12-30T05:32:52.953Z,0
2016-12-30T05:33:53.029Z,0
2016-12-30T05:34:53.079Z,0
2016-12-30T05:35:53.141Z,0
2016-12-30T05:36:53.192Z,0
2016-12-30T05:37:53.246Z,0
2016-12-30T05:38:53.301Z,0
2016-12-30T05:39:53.348Z,0
2016-12-30T05:40:53.411Z,0
2016-12-30T05:41:53.482Z,0
2016-12-30T05:42:53.528Z,0
2016-12-30T05:43:53.580Z,0
2016-12-30T05:44:53.641Z,0
2016-12-30T05:45:53.693Z,0
2016-12-30T05:46:53.748Z,0
2016-12-30T05:47:53.805Z,0
2016-12-30T05:48:53.865Z,0
2016-12-30T05:49:53.913Z,0
2016-12-30T05:50:53.966Z,0
2016-12-30T05:51:54.029Z,0
2016-12-30T05:52:54.077Z,0
2016-12-30T05:53:54.144Z,0
2016-12-30T05:54:54.221Z,0
2016-12-30T05:55:54.248Z,0
2016-12-30T05:56:54.312Z,0
2016-12-30T05:57:54.360Z,0
2016-12-30T05:58:54.407Z,0
2016-12-30T05:59:54.472Z,0
2016-12-30T06:00:54.526Z,0
2016-12-30T06:01:54.579Z,0
2016-12-30T06:02:54.647Z,0
2016-12-30T06:03:54.698Z,0
2016-12-30T06:04:54.749Z,0
2016-12-30T06:05:54.801Z,0
2016-12-30T06:06:54.884Z,0
2016-12-30T06:07:54.920Z,0
2016-12-30T06:08:54.974Z,0
2016-12-30T06:09:55.035Z,0
2016-12-30T06:10:55.084Z,0
2016-12-30T06:11:55.141Z,0
2016-12-30T06:12:55.194Z,0
2016-12-30T06:13:55.259Z,0
2016-12-30T06:14:55.302Z,0
2016-12-30T06:15:55.365Z,0
2016-12-30T06:16:55.428Z,0
2016-12-30T06:17:55.476Z,0
2016-12-30T06:18:55.533Z,0
2016-12-30T06:19:55.582Z,0
2016-12-30T06:20:55.640Z,0
2016-12-30T06:21:55.701Z,0
2016-12-30T06:22:55.749Z,0
2016-12-30T06:23:55.805Z,0
2016-12-30T06:24:55.859Z,0
2016-12-30T06:25:55.917Z,0
2016-12-30T06:26:55.978Z,0
2016-12-30T06:27:56.023Z,0
2016-12-30T06:28:56.072Z,0
2016-12-30T06:29:56.144Z,0
2016-12-30T06:30:56.203Z,0
2016-12-30T06:31:56.246Z,0
2016-12-30T06:32:56.299Z,0
2016-12-30T06:33:56.362Z,0
2016-12-30T06:34:56.408Z,0
2016-12-30T06:35:56.471Z,0
2016-12-30T06:36:56.533Z,0
2016-12-30T06:37:56.579Z,0
2016-12-30T06:38:56.647Z,0
2016-12-30T06:39:56.697Z,0
2016-12-30T06:40:56.757Z,0
2016-12-30T06:41:56.810Z,0
2016-12-30T06:42:56.872Z,0
2016-12-30T06:43:56.929Z,0
2016-12-30T06:44:56.967Z,0
2016-12-30T06:45:57.042Z,0
2016-12-30T06:46:57.091Z,0
2016-12-30T06:47:57.143Z,0
2016-12-30T06:48:57.200Z,0
2016-12-30T06:49:57.251Z,0
2016-12-30T06:50:57.317Z,0
2016-12-30T06:51:57.368Z,0
2016-12-30T06:52:57.420Z,0
2016-12-30T06:53:57.480Z,0
2016-12-30T06:54:57.529Z,0
2016-12-30T06:55:57.598Z,0
2016-12-30T06:56:57.645Z,0
2016-12-30T06:57:57.712Z,0
2016-12-30T06:58:57.765Z,0
2016-12-30T06:59:57.808Z,0
2016-12-30T07:00:57.865Z,0
2016-12-30T07:01:58.334Z,0
2016-12-30T07:02:57.985Z,0
2016-12-30T07:03:58.046Z,0
2016-12-30T07:04:58.086Z,0
2016-12-30T07:05:58.155Z,0
2016-12-30T07:06:58.203Z,0
2016-12-30T07:07:58.260Z,0
2016-12-30T07:08:58.325Z,5
2016-12-30T07:09:58.377Z,5
2016-12-30T07:10:58.428Z,5
2016-12-30T07:11:58.493Z,5
2016-12-30T07:12:58.555Z,5
2016-12-30T07:13:58.611Z,5
2016-12-30T07:14:58.665Z,5
2016-12-30T07:15:58.727Z,5
2016-12-30T07:16:58.774Z,5
2016-12-30T07:17:58.834Z,5
2016-12-30T07:18:58.893Z,5
2016-12-30T07:19:58.952Z,5
2016-12-30T07:20:58.999Z,10
2016-12-30T07:21:59.049Z,10
2016-12-30T07:22:59.105Z,10
2016-12-30T07:23:59.182Z,10
2016-12-30T07:24:59.231Z,10
2016-12-30T07:25:59.275Z,10
2016-12-30T07:26:59.331Z,10
2016-12-30T07:27:59.412Z,10
2016-12-30T07:28:59.446Z,10
2016-12-30T07:29:59.489Z,10
2016-12-30T07:30:59.553Z,15
2016-12-30T07:31:59.624Z,15
2016-12-30T07:32:59.671Z,15
2016-12-30T07:33:59.729Z,15
2016-12-30T07:34:59.781Z,15
2016-12-30T07:35:59.835Z,15
2016-12-30T07:36:59.900Z,15
2016-12-30T07:37:59.961Z,15
2016-12-30T07:39:00.006Z,15
2016-12-30T07:40:00.066Z,15
2016-12-30T07:41:00.112Z,15
2016-12-30T07:42:00.175Z,20
2016-12-30T07:43:00.240Z,20
2016-12-30T07:44:00.289Z,20
2016-12-30T07:45:00.336Z,20
2016-12-30T07:46:00.393Z,20
2016-12-30T07:47:00.607Z,20
2016-12-30T07:48:00.513Z,20
2016-12-30T07:49:00.567Z,20
2016-12-30T07:50:00.617Z,20
2016-12-30T07:51:00.679Z,20
2016-12-30T07:52:00.739Z,20
2016-12-30T07:53:00.787Z,20
2016-12-30T07:54:00.846Z,25
2016-12-30T07:55:00.914Z,25
2016-12-30T07:56:00.948Z,25
2016-12-30T07:57:01.013Z,25
2016-12-30T07:58:01.067Z,25
2016-12-30T07:59:01.134Z,25
2016-12-30T08:00:01.173Z,25
2016-12-30T08:01:01.235Z,25
2016-12-30T08:02:01.287Z,25
2016-12-30T08:03:01.352Z,25
2016-12-30T08:04:01.393Z,25
2016-12-30T08:05:01.453Z,25
2016-12-30T08:06:01.505Z,25
2016-12-30T08:07:01.590Z,25
2016-12-30T08:08:01.634Z,25
2016-12-30T08:09:01.692Z,30
2016-12-30T08:10:01.762Z,30
2016-12-30T08:11:01.800Z,30
2016-12-30T08:12:01.859Z,30
2016-12-30T08:13:01.922Z,30
2016-12-30T08:14:01.968Z,30
2016-12-30T08:15:02.019Z,30
2016-12-30T08:16:02.085Z,30
2016-12-30T08:17:02.526Z,30
2016-12-30T08:18:02.184Z,30
2016-12-30T08:19:02.256Z,30
2016-12-30T08:20:02.297Z,30
2016-12-30T08:21:02.360Z,30
2016-12-30T08:22:02.417Z,30
2016-12-30T08:23:02.473Z,30
2016-12-30T08:24:02.529Z,35
2016-12-30T08:25:02.581Z,35
2016-12-30T08:26:02.656Z,35
2016-12-30T08:27:02.702Z,35
2016-12-30T08:28:02.758Z,35
2016-12-30T08:29:02.820Z,35
2016-12-30T08:30:02.877Z,35
2016-12-30T08:31:02.942Z,35
2016-12-30T08:32:02.986Z,35
2016-12-30T08:33:03.134Z,35
2016-12-30T08:34:03.107Z,35
2016-12-30T08:35:03.165Z,35
2016-12-30T08:36:03.610Z,35
2016-12-30T08:37:03.278Z,40
2016-12-30T08:38:03.322Z,40
2016-12-30T08:39:03.377Z,40
2016-12-30T08:40:03.452Z,40
2016-12-30T08:41:03.517Z,40
2016-12-30T08:42:03.552Z,40
2016-12-30T08:43:03.632Z,40
2016-12-30T08:44:03.675Z,40
2016-12-30T08:45:03.737Z,40
2016-12-30T08:46:03.787Z,40
2016-12-30T08:47:03.849Z,40
2016-12-30T08:48:03.899Z,40
2016-12-30T08:49:04.751Z,40
2016-12-30T08:50:04.027Z,45
2016-12-30T08:51:04.078Z,45
2016-12-30T08:52:04.136Z,45
2016-12-30T08:53:04.203Z,45
2016-12-30T08:54:04.275Z,45
2016-12-30T08:55:04.732Z,45
2016-12-30T08:56:04.386Z,45
2016-12-30T08:57:04.458Z,45
2016-12-30T08:58:04.484Z,45
2016-12-30T08:59:04.526Z,45
2016-12-30T09:00:04.976Z,45
2016-12-30T09:01:04.653Z,45
2016-12-30T09:02:04.713Z,50
2016-12-30T09:03:04.781Z,50
2016-12-30T09:04:04.828Z,50
2016-12-30T09:05:04.891Z,50
2016-12-30T09:06:04.931Z,50
2016-12-30T09:07:04.993Z,50
2016-12-30T09:08:05.043Z,50
2016-12-30T09:09:05.115Z,50
2016-12-30T09:10:05.157Z,50
2016-12-30T09:11:05.252Z,55
2016-12-30T09:12:05.288Z,55
2016-12-30T09:13:05.339Z,55
2016-12-30T09:14:05.387Z,55
2016-12-30T09:15:05.454Z,55
2016-12-30T09:16:05.507Z,60
2016-12-30T09:17:05.553Z,60
2016-12-30T09:18:05.612Z,60
2016-12-30T09:19:05.669Z,60
2016-12-30T09:20:05.738Z,65
2016-12-30T09:21:05.786Z,65
2016-12-30T09:22:05.846Z,65
2016-12-30T09:23:05.889Z,70
2016-12-30T09:24:05.956Z,75
2016-12-30T09:25:06.041Z,80
2016-12-30T09:26:06.068Z,85
2016-12-30T09:27:06.133Z,105
2016-12-30T09:28:06.182Z,350
2016-12-30T09:29:06.276Z,660
2016-12-30T09:30:06.294Z,670
2016-12-30T09:31:06.345Z,660
2016-12-30T09:32:06.403Z,650
2016-12-30T09:33:06.461Z,655
2016-12-30T09:34:06.535Z,670
2016-12-30T09:35:06.583Z,705
2016-12-30T09:36:06.641Z,760
2016-12-30T09:37:06.697Z,750
2016-12-30T09:38:06.752Z,520
2016-12-30T09:39:06.824Z,335
2016-12-30T09:40:06.871Z,315
2016-12-30T09:41:06.916Z,300
2016-12-30T09:42:06.988Z,290
2016-12-30T09:43:07.043Z,295
2016-12-30T09:44:07.111Z,300
2016-12-30T09:45:07.154Z,310
2016-12-30T09:46:07.207Z,360
2016-12-30T09:47:07.274Z,600
2016-12-30T09:48:07.337Z,810
2016-12-30T09:49:07.382Z,765
2016-12-30T09:50:07.451Z,715
2016-12-30T09:51:07.493Z,725
2016-12-30T09:52:07.561Z,720
2016-12-30T09:53:07.604Z,730
2016-12-30T09:54:07.671Z,790
2016-12-30T09:55:07.723Z,765
2016-12-30T09:56:07.777Z,730
2016-12-30T09:57:07.856Z,720
2016-12-30T09:58:07.901Z,735
2016-12-30T09:59:07.950Z,785
2016-12-30T10:00:08.007Z,730
2016-12-30T10:01:08.079Z,715
2016-12-30T10:02:08.122Z,750
2016-12-30T10:03:08.190Z,770
2016-12-30T10:04:08.253Z,850
2016-12-30T10:05:09.075Z,860
2016-12-30T10:06:08.355Z,865
2016-12-30T10:07:08.407Z,835
2016-12-30T10:08:08.476Z,780
2016-12-30T10:09:08.525Z,830
2016-12-30T10:10:08.579Z,825
2016-12-30T10:11:08.632Z,800
2016-12-30T10:12:08.702Z,840
2016-12-30T10:13:08.757Z,905
2016-12-30T10:14:08.809Z,1200
2016-12-30T10:15:08.877Z,1500
2016-12-30T10:16:08.920Z,1325
2016-12-30T10:17:08.975Z,1045
2016-12-30T10:18:09.036Z,885
2016-12-30T10:19:09.088Z,970
2016-12-30T10:20:09.159Z,1065
2016-12-30T10:21:09.201Z,980
2016-12-30T10:22:09.267Z,810
2016-12-30T10:23:09.332Z,690
2016-12-30T10:24:09.379Z,765
2016-12-30T10:25:09.448Z,870
2016-12-30T10:26:09.502Z,995
2016-12-30T10:27:09.563Z,865
2016-12-30T10:28:09.616Z,560
2016-12-30T10:29:09.660Z,460
2016-12-30T10:30:09.723Z,475
2016-12-30T10:31:09.796Z,525
2016-12-30T10:32:09.856Z,560
2016-12-30T10:33:09.908Z,665
2016-12-30T10:34:09.957Z,930
2016-12-30T10:35:10.020Z,1035
2016-12-30T10:36:10.090Z,1000
2016-12-30T10:37:10.128Z,925
2016-12-30T10:38:10.191Z,835
2016-12-30T10:39:10.273Z,900
2016-12-30T10:40:10.310Z,980
2016-12-30T10:41:10.351Z,1085
2016-12-30T10:42:10.427Z,1250
2016-12-30T10:43:10.459Z,1120
2016-12-30T10:44:10.521Z,900
2016-12-30T10:45:10.591Z,840
2016-12-30T10:46:10.643Z,690
2016-12-30T10:47:10.691Z,595
2016-12-30T10:48:10.762Z,605
2016-12-30T10:49:10.823Z,725
2016-12-30T10:50:10.870Z,1195
2016-12-30T10:51:10.957Z,1655
2016-12-30T10:52:10.989Z,1345
2016-12-30T10:53:11.052Z,850
2016-12-30T10:54:11.109Z,710
2016-12-30T10:55:11.153Z,800
2016-12-30T10:56:11.220Z,1070
2016-12-30T10:57:11.278Z,1245
2016-12-30T10:58:11.328Z,1100
2016-12-30T10:59:11.382Z,1100
2016-12-30T11:00:11.445Z,1415
2016-12-30T11:01:11.505Z,1240
2016-12-30T11:02:11.559Z,745
2016-12-30T11:03:11.618Z,590
2016-12-30T11:04:11.679Z,605
2016-12-30T11:05:11.734Z,615
2016-12-30T11:06:11.786Z,575
2016-12-30T11:07:11.844Z,580
2016-12-30T11:08:11.901Z,605
2016-12-30T11:09:11.971Z,615
2016-12-30T11:10:12.016Z,760
2016-12-30T11:11:12.081Z,1240
2016-12-30T11:12:12.124Z,1715
2016-12-30T11:13:12.188Z,1960
2016-12-30T11:14:12.249Z,1775
2016-12-30T11:15:12.294Z,1310
2016-12-30T11:16:12.354Z,1060
2016-12-30T11:17:12.406Z,1175
2016-12-30T11:18:12.473Z,1410
2016-12-30T11:19:12.539Z,1350
2016-12-30T11:20:12.585Z,1085
2016-12-30T11:21:12.646Z,1060
2016-12-30T11:22:12.695Z,1170
2016-12-30T11:23:12.799Z,1250
2016-12-30T11:24:12.805Z,1315
2016-12-30T11:25:12.863Z,1250
2016-12-30T11:26:12.930Z,1185
2016-12-30T11:27:12.978Z,1080
2016-12-30T11:28:13.038Z,935
2016-12-30T11:29:13.100Z,940
2016-12-30T11:30:13.165Z,1125
2016-12-30T11:31:13.203Z,1195
2016-12-30T11:32:13.267Z,1165
2016-12-30T11:33:13.323Z,1185
2016-12-30T11:34:13.390Z,1165
2016-12-30T11:35:13.452Z,1165
2016-12-30T11:36:13.503Z,1180
2016-12-30T11:37:13.559Z,1190
2016-12-30T11:38:13.607Z,1295
2016-12-30T11:39:13.673Z,1470
2016-12-30T11:40:13.715Z,1195
2016-12-30T11:41:13.792Z,635
2016-12-30T11:42:13.844Z,435
2016-12-30T11:43:13.932Z,415
2016-12-30T11:44:13.948Z,410
2016-12-30T11:45:14.018Z,405
2016-12-30T11:46:14.080Z,400
2016-12-30T11:47:14.129Z,415
2016-12-30T11:48:14.178Z,630
2016-12-30T11:49:14.250Z,1130
2016-12-30T11:50:14.316Z,1270
2016-12-30T11:51:14.353Z,1105
2016-12-30T11:52:14.424Z,1160
2016-12-30T11:53:14.463Z,1285
2016-12-30T11:54:14.532Z,965
2016-12-30T11:55:14.588Z,565
2016-12-30T11:56:14.652Z,435
2016-12-30T11:57:14.706Z,405
2016-12-30T11:58:14.755Z,400
2016-12-30T11:59:14.818Z,480
2016-12-30T12:00:14.876Z,855
2016-12-30T12:01:14.929Z,1310
2016-12-30T12:02:15.043Z,1345
2016-12-30T12:03:15.048Z,1205
2016-12-30T12:04:15.104Z,1185
2016-12-30T12:05:15.158Z,1150
2016-12-30T12:06:15.234Z,1135
2016-12-30T12:07:15.271Z,1110
2016-12-30T12:08:15.347Z,1070
2016-12-30T12:09:15.397Z,1015
2016-12-30T12:10:15.464Z,1020
2016-12-30T12:11:15.512Z,1080
2016-12-30T12:12:15.589Z,1045
2016-12-30T12:13:15.630Z,1045
2016-12-30T12:14:15.694Z,1090
2016-12-30T12:15:15.751Z,1105
2016-12-30T12:16:15.805Z,1070
2016-12-30T12:17:15.886Z,1030
2016-12-30T12:18:15.932Z,1035
2016-12-30T12:19:15.990Z,1025
2016-12-30T12:20:16.047Z,975
2016-12-30T12:21:16.484Z,1005
2016-12-30T12:22:16.165Z,1045
2016-12-30T12:23:16.221Z,1025
2016-12-30T12:24:16.311Z,1010
2016-12-30T12:25:16.334Z,995
2016-12-30T12:26:16.394Z,1020
2016-12-30T12:27:16.461Z,1055
2016-12-30T12:28:16.509Z,1070
2016-12-30T12:29:16.572Z,1075
2016-12-30T12:30:16.617Z,1060
2016-12-30T12:31:16.678Z,1090
2016-12-30T12:32:16.744Z,1060
2016-12-30T12:33:16.813Z,1040
2016-12-30T12:34:16.859Z,1080
2016-12-30T12:35:16.910Z,1055
2016-12-30T12:36:16.979Z,1050
2016-12-30T12:37:17.035Z,1050
2016-12-30T12:38:17.102Z,1130
2016-12-30T12:39:17.151Z,1215
2016-12-30T12:40:17.213Z,945
2016-12-30T12:41:17.271Z,520
2016-12-30T12:42:17.349Z,405
2016-12-30T12:43:17.394Z,410
2016-12-30T12:44:17.439Z,425
2016-12-30T12:45:17.507Z,590
2016-12-30T12:46:17.561Z,1010
2016-12-30T12:47:17.607Z,1195
2016-12-30T12:48:17.880Z,1090
2016-12-30T12:49:17.745Z,1010
2016-12-30T12:50:17.792Z,1000
2016-12-30T12:51:17.846Z,1015
2016-12-30T12:52:17.906Z,1005
2016-12-30T12:53:17.971Z,985
2016-12-30T12:54:18.007Z,990
2016-12-30T12:55:18.088Z,980
2016-12-30T12:56:18.130Z,945
2016-12-30T12:57:18.198Z,975
2016-12-30T12:58:18.246Z,990
2016-12-30T12:59:18.308Z,945
2016-12-30T13:00:18.357Z,935
2016-12-30T13:01:18.418Z,975
2016-12-30T13:02:18.479Z,975
2016-12-30T13:03:18.705Z,965
2016-12-30T13:04:18.592Z,965
2016-12-30T13:05:18.653Z,940
2016-12-30T13:06:18.715Z,935
2016-12-30T13:07:18.763Z,980
2016-12-30T13:08:18.819Z,1000
2016-12-30T13:09:18.884Z,955
2016-12-30T13:10:18.948Z,935
2016-12-30T13:11:18.987Z,915
2016-12-30T13:12:19.057Z,890
2016-12-30T13:13:19.155Z,910
2016-12-30T13:14:19.176Z,935
2016-12-30T13:15:19.220Z,960
2016-12-30T13:16:19.292Z,965
2016-12-30T13:17:19.337Z,960
2016-12-30T13:18:19.390Z,945
2016-12-30T13:19:19.453Z,920
2016-12-30T13:20:19.501Z,940
2016-12-30T13:21:19.560Z,935
2016-12-30T13:22:19.622Z,975
2016-12-30T13:23:19.678Z,1050
2016-12-30T13:24:19.746Z,970
2016-12-30T13:25:19.793Z,735
2016-12-30T13:26:19.854Z,525
2016-12-30T13:27:19.906Z,455
2016-12-30T13:28:19.964Z,510
2016-12-30T13:29:20.024Z,690
2016-12-30T13:30:20.067Z,850
2016-12-30T13:31:20.141Z,885
2016-12-30T13:32:20.201Z,920
2016-12-30T13:33:20.252Z,965
2016-12-30T13:34:20.305Z,865
2016-12-30T13:35:20.356Z,875
2016-12-30T13:36:20.422Z,935
2016-12-30T13:37:20.476Z,880
2016-12-30T13:38:20.533Z,815
2016-12-30T13:39:20.601Z,780
2016-12-30T13:40:20.641Z,785
2016-12-30T13:41:20.709Z,795
2016-12-30T13:42:20.754Z,770
2016-12-30T13:43:20.820Z,785
2016-12-30T13:44:21.065Z,790
2016-12-30T13:45:20.935Z,765
2016-12-30T13:46:20.983Z,765
2016-12-30T13:47:21.051Z,735
2016-12-30T13:48:21.112Z,690
2016-12-30T13:49:21.163Z,720
2016-12-30T13:50:21.206Z,755
2016-12-30T13:51:21.275Z,745
2016-12-30T13:52:21.334Z,710
2016-12-30T13:53:21.382Z,685
2016-12-30T13:54:21.449Z,670
2016-12-30T13:55:21.500Z,665
2016-12-30T13:56:21.571Z,640
2016-12-30T13:57:21.611Z,675
2016-12-30T13:58:21.669Z,710
2016-12-30T13:59:21.730Z,715
2016-12-30T14:00:21.792Z,700
2016-12-30T14:01:21.836Z,660
2016-12-30T14:02:21.910Z,650
2016-12-30T14:03:21.955Z,600
2016-12-30T14:04:22.024Z,530
2016-12-30T14:05:22.071Z,380
2016-12-30T14:06:22.140Z,200
2016-12-30T14:07:22.189Z,70
2016-12-30T14:08:22.245Z,35
2016-12-30T14:09:22.293Z,35
2016-12-30T14:10:22.345Z,35
2016-12-30T14:11:22.438Z,30
2016-12-30T14:12:22.471Z,30
2016-12-30T14:13:22.537Z,30
2016-12-30T14:14:22.584Z,30
2016-12-30T14:15:22.647Z,30
2016-12-30T14:16:22.699Z,30
2016-12-30T14:17:22.747Z,30
2016-12-30T14:18:22.812Z,30
2016-12-30T14:19:22.856Z,30